Argenta, Texas
Current Conditions -  °F | °C
As of 5:55 PM on Monday 26 Jan 2015 (Local Time) from KRBO Reporting Station
Clear Clear  
Wind Chill: 67°   Ceiling: Unl
Heat Index: 67°   Visibility: 10mi
Dew Point: 44°   Wind: 7mph
Humidity: 44%   Direction: 150°SSE
Pressure: 30.19"   Gusts: NA
Location:  28.0654°N, 97.7489°W
Report Text: KRBO 262355Z AUTO 15006KT 10SM CLR 19/07 A3019 RMK AO2 T01940068 10229 20194
Loading
Personal Weather Stations






























Interactive Weather Map New forecast layout! Learn more

10-Day Weather Forecast

Advertisements
Track Severe Weather on mobile